Terminal Aerodrome Forecast
Issued by NWS

Home | Current Version | Previous Version | Text Only | Print | Product List | Glossary On
Versions: 1 2 3 4 5 6 7 8 9 10 11 12 13
000
FTUS43 KIWX 011120
TAFSBN
TAF
KSBN 011120Z 0112/0212 07004KT 5SM -SHRA BR OVC006
     FM011400 12005KT 5SM -SHRA BR OVC012
     FM011700 15005KT 6SM -SHRA OVC025
     FM011800 15005KT P6SM -SHRA BKN040
     FM012200 VRB03KT P6SM VCSH SCT030 BKN090
     FM020600 00000KT 6SM BR BKN100
     FM020800 00000KT 3SM BR BKN070
     FM021100 VRB03KT 1SM BR BKN035=

USA.gov is the U.S. government's official web portal to all federal, state and local government web resources and services.